Time;durP1;ratioP1;P1;durP2;ratioP2;P2;SDS_P1;SDS_P2;PMS_P1;PMS_P2;Temp;Humidity;BMP_temperature;BMP_pressure;BME280_temperature;BME280_humidity;BME280_pressure;Samples;Min_cycle;Max_cycle;Signal;HPM_P1;HPM_P2
2021/08/08 00:00:33;;;;;;;8.50;3.23;;;;;;;15.65;88.56;100213.94;5118277;28;20268;-35
2021/08/08 00:02:58;;;;;;;;;;;;;;;15.72;87.86;100213.66;5117764;28;20023;-35
2021/08/08 00:05:23;;;;;;;5.90;2.88;;;;;;;15.64;88.32;100211.50;5117564;28;19973;-35
2021/08/08 00:07:49;;;;;;;7.63;3.45;;;;;;;15.66;88.55;100217.47;5117074;28;20097;-35
2021/08/08 00:10:14;;;;;;;;;;;;;;;15.70;88.14;100213.09;5117901;28;20027;-35
2021/08/08 00:12:41;;;;;;;6.72;3.22;;;;;;;15.56;89.24;100212.84;5116813;28;19904;-35
2021/08/08 00:15:10;;;;;;;10.50;3.80;;;;;;;15.55;89.23;100219.41;5116600;28;20016;-35
2021/08/08 00:17:35;;;;;;;6.93;3.20;;;;;;;15.57;89.53;100225.41;5116968;28;20023;-35
2021/08/08 00:20:01;;;;;;;9.65;4.45;;;;;;;15.55;89.25;100227.56;5116725;27;20023;-35
2021/08/08 00:22:27;;;;;;;8.57;3.75;;;;;;;15.60;89.47;100235.72;5116786;28;20045;-35
2021/08/08 00:24:52;;;;;;;6.53;3.50;;;;;;;15.60;89.39;100241.19;5116240;27;20464;-35
2021/08/08 00:27:17;;;;;;;;;;;;;;;15.65;88.87;100237.66;5117292;28;20115;-35
2021/08/08 00:29:42;;;;;;;7.30;3.73;;;;;;;15.51;89.42;100225.69;5116693;28;19919;-35
2021/08/08 00:32:08;;;;;;;8.60;3.77;;;;;;;15.60;89.18;100241.19;5116544;28;20253;-35
2021/08/08 00:34:33;;;;;;;8.38;3.75;;;;;;;15.55;90.28;100237.66;5116415;28;20276;-35
2021/08/08 00:36:59;;;;;;;7.32;3.33;;;;;;;15.54;89.85;100242.31;5116736;28;20055;-35
2021/08/08 00:39:25;;;;;;;12.73;3.80;;;;;;;15.57;90.38;100239.03;5116727;28;20479;-35
2021/08/08 00:41:51;;;;;;;10.82;3.83;;;;;;;15.53;90.58;100246.13;5117101;28;20023;-35
2021/08/08 00:44:16;;;;;;;;;;;;;;;15.53;89.55;100231.69;5116760;28;20114;-35
2021/08/08 00:46:41;;;;;;;11.20;3.97;;;;;;;15.53;89.72;100246.13;5116171;28;20258;-35
2021/08/08 00:49:07;;;;;;;8.00;3.67;;;;;;;15.53;89.75;100245.31;5115901;28;20027;-35
2021/08/08 00:51:33;;;;;;;7.75;3.65;;;;;;;15.45;89.64;100233.88;5116709;28;20254;-35
2021/08/08 00:54:00;;;;;;;11.95;4.88;;;;;;;15.43;89.55;100227.91;5116570;28;20063;-35
2021/08/08 00:56:26;;;;;;;11.10;4.15;;;;;;;15.49;89.56;100255.94;5116360;28;20023;-35
2021/08/08 00:58:51;;;;;;;9.10;4.13;;;;;;;15.53;89.58;100257.03;5115208;28;20480;-35
2021/08/08 01:01:18;;;;;;;;;;;;;;;15.59;88.65;100266.81;5116318;28;20454;-36
2021/08/08 01:03:44;;;;;;;9.73;3.43;;;;;;;15.48;88.71;100262.50;5116284;28;19915;-35
2021/08/08 01:06:12;;;;;;;;;;;;;;;15.61;88.13;100270.06;5115740;28;20016;-36
2021/08/08 01:08:43;;;;;;;8.90;4.18;;;;;;;15.53;89.09;100269.84;5115824;28;19911;-35
2021/08/08 01:11:10;;;;;;;12.75;4.72;;;;;;;15.53;89.27;100267.94;5116463;28;20106;-35
2021/08/08 01:13:37;;;;;;;15.07;4.20;;;;;;;15.37;89.14;100249.97;5115413;28;20011;-35
2021/08/08 01:16:03;;;;;;;11.65;4.15;;;;;;;15.53;88.36;100281.53;5115481;28;20016;-35
2021/08/08 01:18:29;;;;;;;11.35;3.95;;;;;;;15.54;88.43;100275.00;5115987;28;20023;-35
2021/08/08 01:20:55;;;;;;;16.17;5.00;;;;;;;15.47;88.17;100266.31;5116024;28;20015;-35
2021/08/08 01:23:24;;;;;;;12.40;5.47;;;;;;;15.55;88.39;100292.97;5115668;28;20110;-35
2021/08/08 01:25:49;;;;;;;15.13;5.22;;;;;;;15.58;88.35;100297.88;5115833;28;20051;-35
2021/08/08 01:28:15;;;;;;;13.90;4.95;;;;;;;15.54;88.19;100296.78;5115276;28;20352;-35
2021/08/08 01:30:41;;;;;;;11.38;3.97;;;;;;;15.48;87.87;100286.19;5116170;28;20029;-35
2021/08/08 01:33:07;;;;;;;;;;;;;;;15.62;87.33;100301.69;5116338;28;20308;-35
2021/08/08 01:35:33;;;;;;;14.95;5.00;;;;;;;15.57;88.20;100309.88;5116005;27;20262;-35
2021/08/08 01:37:59;;;;;;;14.40;4.53;;;;;;;15.55;88.25;100314.78;5115452;28;20023;-35
2021/08/08 01:40:35;;;;;;;12.77;3.90;;;;;;;15.57;87.43;100314.53;5115057;28;20035;-35
2021/08/08 01:43:03;;;;;;;11.70;4.55;;;;;;;15.52;88.05;100318.06;5115366;28;20111;-35
2021/08/08 01:45:29;;;;;;;13.40;4.70;;;;;;;15.50;87.48;100314.78;5115748;27;20089;-35
2021/08/08 01:47:58;;;;;;;16.80;5.18;;;;;;;15.55;86.92;100328.41;5115712;28;20436;-35
2021/08/08 01:50:30;;;;;;;20.50;4.90;;;;;;;15.54;87.10;100320.50;5115143;28;20042;-35
2021/08/08 01:52:56;;;;;;;11.50;3.92;;;;;;;15.56;86.83;100326.50;5115504;28;20328;-35
2021/08/08 01:55:22;;;;;;;13.70;3.92;;;;;;;15.42;86.94;100307.16;5115324;28;20032;-35
2021/08/08 01:57:47;;;;;;;18.13;4.97;;;;;;;15.53;86.78;100327.88;5114743;28;20027;-35
2021/08/08 02:00:13;;;;;;;11.45;3.97;;;;;;;15.48;87.02;100319.72;5115370;28;20027;-35
2021/08/08 02:02:58;;;;;;;16.73;4.50;;;;;;;15.59;86.66;100342.28;5115126;28;20022;-35
2021/08/08 02:05:27;;;;;;;17.92;4.28;;;;;;;15.57;86.87;100339.84;5115077;28;20032;-35
2021/08/08 02:07:53;;;;;;;14.18;4.18;;;;;;;15.48;87.00;100324.34;5114472;28;20061;-35
2021/08/08 02:10:19;;;;;;;13.82;4.50;;;;;;;15.55;86.19;100341.22;5114727;28;20055;-35
2021/08/08 02:12:45;;;;;;;15.00;4.53;;;;;;;15.54;85.53;100334.13;5114370;28;20471;-35
2021/08/08 02:15:11;;;;;;;11.77;4.95;;;;;;;15.51;86.37;100340.13;5114660;27;20051;-35
2021/08/08 02:17:38;;;;;;;18.00;5.03;;;;;;;15.44;85.91;100335.78;5114245;28;20023;-35
2021/08/08 02:20:06;;;;;;;12.07;3.80;;;;;;;15.45;85.96;100337.41;5114806;28;20024;-35
2021/08/08 02:22:31;;;;;;;15.82;4.43;;;;;;;15.48;86.62;100346.97;5114165;28;20027;-35
2021/08/08 02:24:56;;;;;;;13.23;4.28;;;;;;;15.45;86.62;100351.03;5114281;28;20024;-35
2021/08/08 02:27:22;;;;;;;18.60;4.37;;;;;;;15.38;86.17;100342.34;5113081;28;20469;-35
2021/08/08 02:29:47;;;;;;;20.40;5.25;;;;;;;15.35;86.22;100347.53;5114983;28;20111;-35
2021/08/08 02:32:15;;;;;;;13.90;4.20;;;;;;;15.40;85.97;100359.22;5114366;28;20024;-35
2021/08/08 02:34:40;;;;;;;13.52;4.03;;;;;;;15.38;85.70;100353.25;5114176;28;20031;-35
2021/08/08 02:37:06;;;;;;;15.25;4.00;;;;;;;15.30;85.84;100333.91;5114978;28;20038;-35
2021/08/08 02:39:31;;;;;;;12.63;3.85;;;;;;;15.38;85.49;100352.44;5114055;28;20120;-35
2021/08/08 02:41:56;;;;;;;12.00;4.22;;;;;;;15.45;85.98;100374.75;5114320;28;20020;-35
2021/08/08 02:44:22;;;;;;;13.70;4.50;;;;;;;15.40;85.03;100372.03;5114207;28;20019;-35
2021/08/08 02:46:47;;;;;;;13.03;3.77;;;;;;;15.39;85.38;100371.22;5114261;28;20270;-35
2021/08/08 02:49:12;;;;;;;;;;;;;;;15.50;84.96;100377.47;5114371;28;20090;-35
2021/08/08 02:51:37;;;;;;;13.87;4.03;;;;;;;15.42;84.93;100383.47;5113938;28;19904;-35
2021/08/08 02:54:03;;;;;;;16.27;3.90;;;;;;;15.40;84.81;100385.66;5113546;28;20088;-35
2021/08/08 02:56:28;;;;;;;16.08;4.20;;;;;;;15.40;84.64;100393.81;5113558;28;20023;-35
2021/08/08 02:58:53;;;;;;;15.75;4.20;;;;;;;15.39;85.15;100397.66;5113853;28;20035;-35
2021/08/08 03:01:19;;;;;;;18.77;4.37;;;;;;;15.31;84.12;100390.00;5114082;28;20517;-35
2021/08/08 03:03:44;;;;;;;17.87;4.53;;;;;;;15.39;84.60;100403.09;5113747;28;20315;-35
2021/08/08 03:06:14;;;;;;;17.27;4.53;;;;;;;15.37;84.72;100403.38;5113696;28;20032;-35
2021/08/08 03:08:42;;;;;;;18.90;4.80;;;;;;;15.33;84.75;100404.19;5113668;28;20102;-35
2021/08/08 03:11:09;;;;;;;16.77;4.13;;;;;;;15.34;84.38;100408.53;5113306;28;20071;-35
2021/08/08 03:13:34;;;;;;;15.93;4.20;;;;;;;15.26;84.67;100401.72;5114004;28;20020;-35
2021/08/08 03:15:59;;;;;;;15.90;4.43;;;;;;;15.32;84.58;100418.88;5113838;28;20028;-35
2021/08/08 03:18:25;;;;;;;15.98;3.72;;;;;;;15.29;84.27;100411.28;5113676;28;20051;-35
2021/08/08 03:20:50;;;;;;;15.05;4.40;;;;;;;15.32;83.86;100414.25;5114000;28;20034;-35
2021/08/08 03:23:18;;;;;;;10.90;3.40;;;;;;;15.33;83.88;100421.34;5114056;28;20386;-35
2021/08/08 03:25:43;;;;;;;16.38;4.55;;;;;;;15.29;83.83;100412.09;5113859;28;20065;-35
2021/08/08 03:28:09;;;;;;;16.35;3.75;;;;;;;15.29;83.87;100420.25;5113704;28;20026;-35
2021/08/08 03:30:34;;;;;;;14.20;3.63;;;;;;;15.27;83.86;100422.41;5112672;28;20027;-35
2021/08/08 03:32:59;;;;;;;19.30;3.70;;;;;;;15.23;84.12;100431.44;5113264;28;20019;-35
2021/08/08 03:35:25;;;;;;;13.67;3.43;;;;;;;15.24;84.09;100425.72;5113349;28;20121;-35
2021/08/08 03:37:50;;;;;;;14.88;4.00;;;;;;;15.20;84.63;100428.16;5113119;28;20019;-35
2021/08/08 03:40:16;;;;;;;14.13;3.55;;;;;;;15.19;83.95;100431.97;5113210;28;20024;-35
2021/08/08 03:42:41;;;;;;;14.85;4.57;;;;;;;15.18;84.29;100437.69;5112602;28;20078;-35
2021/08/08 03:45:07;;;;;;;14.77;4.03;;;;;;;15.20;83.68;100447.22;5113489;28;20028;-35
2021/08/08 03:47:33;;;;;;;11.25;3.55;;;;;;;15.18;83.48;100437.69;5113433;28;20031;-35
2021/08/08 03:49:59;;;;;;;14.13;3.90;;;;;;;15.16;84.00;100431.69;5113054;28;20474;-35
2021/08/08 03:52:25;;;;;;;14.63;3.92;;;;;;;15.23;84.52;100448.59;5112191;28;20028;-35
2021/08/08 03:54:50;;;;;;;13.55;3.92;;;;;;;15.18;84.06;100445.88;5113762;28;20024;-35
2021/08/08 03:57:15;;;;;;;20.10;4.22;;;;;;;15.19;83.79;100455.66;5113487;28;20381;-35
2021/08/08 03:59:40;;;;;;;14.37;3.63;;;;;;;15.13;83.31;100448.59;5112997;28;20370;-35
2021/08/08 04:02:06;;;;;;;16.00;4.07;;;;;;;15.13;82.99;100449.41;5113232;28;20298;-35
2021/08/08 04:04:31;;;;;;;14.68;4.15;;;;;;;15.16;83.50;100459.72;5112645;28;20084;-35
2021/08/08 04:06:57;;;;;;;11.70;3.10;;;;;;;15.13;83.46;100465.75;5113111;28;20028;-35
2021/08/08 04:09:22;;;;;;;15.53;3.73;;;;;;;15.10;83.21;100455.38;5112745;28;20680;-35
2021/08/08 04:11:47;;;;;;;17.73;3.92;;;;;;;15.08;83.16;100462.16;5113477;28;20411;-35
2021/08/08 04:14:13;;;;;;;18.63;4.37;;;;;;;14.96;83.48;100446.09;5112730;28;20062;-35
2021/08/08 04:16:39;;;;;;;15.75;4.15;;;;;;;14.96;82.95;100456.16;5112850;28;20293;-35
2021/08/08 04:19:04;;;;;;;18.43;5.03;;;;;;;14.99;83.54;100463.81;5112823;28;20055;-35
2021/08/08 04:21:29;;;;;;;14.13;4.20;;;;;;;15.04;83.75;100470.09;5113109;28;20257;-35
2021/08/08 04:23:55;;;;;;;16.20;3.47;;;;;;;15.00;83.31;100471.69;5112753;28;20031;-35
2021/08/08 04:26:20;;;;;;;14.70;4.43;;;;;;;14.96;83.88;100457.00;5112520;28;20093;-35
2021/08/08 04:28:46;;;;;;;17.30;4.00;;;;;;;15.01;83.50;100484.22;5112789;28;20028;-35
2021/08/08 04:31:11;;;;;;;13.45;3.88;;;;;;;14.98;83.16;100464.88;5113469;28;20254;-35
2021/08/08 04:33:37;;;;;;;16.77;3.63;;;;;;;15.06;82.93;100491.59;5112616;28;20093;-35
2021/08/08 04:36:03;;;;;;;;;;;;;;;15.11;83.03;100486.97;5113249;28;20027;-35
2021/08/08 04:38:29;;;;;;;17.80;3.83;;;;;;;15.00;82.96;100471.69;5112579;28;19915;-35
2021/08/08 04:40:54;;;;;;;16.33;3.58;;;;;;;15.11;82.87;100483.44;5113706;28;20423;-35
2021/08/08 04:43:19;;;;;;;15.80;4.28;;;;;;;15.13;82.64;100492.16;5114996;28;20080;-35
2021/08/08 04:45:45;;;;;;;15.23;4.30;;;;;;;15.12;82.53;100498.66;5116556;28;20031;-35
2021/08/08 04:48:10;;;;;;;13.07;3.63;;;;;;;15.04;82.75;100482.88;5116260;28;20269;-35
2021/08/08 04:50:35;;;;;;;16.90;3.70;;;;;;;15.12;82.86;100491.31;5116517;28;20035;-35
2021/08/08 04:53:01;;;;;;;15.73;3.67;;;;;;;15.15;82.72;100498.16;5115855;28;20020;-35
2021/08/08 04:55:26;;;;;;;15.50;4.00;;;;;;;15.14;82.88;100502.78;5114946;28;20333;-40
2021/08/08 04:57:51;;;;;;;16.67;4.05;;;;;;;15.14;82.84;100510.94;5116506;28;20162;-35
2021/08/08 05:00:17;;;;;;;18.23;4.07;;;;;;;15.17;82.80;100512.28;5116197;28;20458;-35
2021/08/08 05:02:47;;;;;;;13.73;3.35;;;;;;;15.18;82.22;100522.94;5116481;28;20351;-35
2021/08/08 05:05:14;;;;;;;14.45;3.80;;;;;;;15.11;82.29;100503.31;5115903;28;20473;-35
2021/08/08 05:07:40;;;;;;;16.60;3.72;;;;;;;15.22;82.41;100514.22;5116141;28;20024;-35
2021/08/08 05:10:09;;;;;;;;;;;;;;;15.30;81.61;100516.41;5116414;28;20024;-35
2021/08/08 05:12:35;;;;;;;14.75;3.90;;;;;;;15.30;81.48;100521.88;5115703;28;20334;-35
2021/08/08 05:15:01;;;;;;;17.10;3.45;;;;;;;15.29;81.87;100528.41;5115677;27;20047;-35
2021/08/08 05:17:26;;;;;;;14.70;4.00;;;;;;;15.27;82.33;100533.28;5114531;28;20027;-35
2021/08/08 05:19:51;;;;;;;15.32;3.72;;;;;;;15.29;81.97;100536.56;5115550;28;20096;-35
2021/08/08 05:22:17;;;;;;;14.35;3.60;;;;;;;15.29;82.50;100539.31;5115598;28;20023;-35
2021/08/08 05:24:42;;;;;;;15.93;3.67;;;;;;;15.29;82.09;100533.84;5115893;28;20031;-35
2021/08/08 05:27:07;;;;;;;20.75;4.68;;;;;;;15.31;81.94;100546.09;5116172;28;20281;-35
2021/08/08 05:29:33;;;;;;;15.80;3.47;;;;;;;15.30;81.47;100544.47;5115219;28;20088;-35
2021/08/08 05:31:58;;;;;;;20.17;3.70;;;;;;;15.33;81.66;100556.75;5115893;28;20254;-35
2021/08/08 05:34:23;;;;;;;16.73;3.75;;;;;;;15.31;82.05;100561.63;5115140;28;20421;-35
2021/08/08 05:36:48;;;;;;;15.67;3.70;;;;;;;15.24;81.55;100547.47;5115608;28;20092;-35
2021/08/08 05:39:14;;;;;;;12.33;4.37;;;;;;;15.31;81.51;100562.44;5114939;28;20802;-35
2021/08/08 05:41:39;;;;;;;20.50;4.40;;;;;;;15.33;81.76;100556.75;5115437;28;20065;-35
2021/08/08 05:44:05;;;;;;;18.27;4.37;;;;;;;15.18;82.09;100528.38;5115366;28;20314;-36
2021/08/08 05:46:30;;;;;;;12.48;3.00;;;;;;;15.39;81.30;100563.84;5116025;28;20681;-36
2021/08/08 05:48:55;;;;;;;21.45;4.18;;;;;;;15.34;80.70;100559.19;5115326;28;20038;-36
2021/08/08 05:51:21;;;;;;;15.05;4.10;;;;;;;15.36;80.11;100556.19;5114066;28;20023;-37
2021/08/08 05:53:46;;;;;;;25.00;4.45;;;;;;;15.45;79.96;100570.94;5114523;28;20110;-36
2021/08/08 05:56:11;;;;;;;16.73;3.67;;;;;;;15.33;80.64;100568.47;5115539;28;20024;-35
2021/08/08 05:58:37;;;;;;;15.40;3.90;;;;;;;15.37;80.42;100571.44;5114693;28;20269;-36
2021/08/08 06:01:02;;;;;;;17.85;3.97;;;;;;;15.40;80.49;100570.91;5114916;28;20079;-35
2021/08/08 06:03:27;;;;;;;13.33;4.03;;;;;;;15.53;80.50;100585.94;5113767;28;20178;-36
2021/08/08 06:05:53;;;;;;;19.50;4.00;;;;;;;15.51;80.23;100583.47;5113470;28;20277;-36
2021/08/08 06:08:18;;;;;;;;;;;;;;;15.60;79.88;100590.03;5115644;28;20027;-36
2021/08/08 06:10:43;;;;;;;15.48;3.55;;;;;;;15.55;79.48;100586.47;5115182;28;20328;-36
2021/08/08 06:13:09;;;;;;;19.75;4.72;;;;;;;15.51;79.34;100597.09;5114612;28;20077;-36
2021/08/08 06:15:35;;;;;;;21.23;4.85;;;;;;;15.52;79.32;100593.31;5114582;27;20055;-36
2021/08/08 06:18:00;;;;;;;18.25;4.13;;;;;;;15.54;79.71;100603.91;5114719;28;20048;-35
2021/08/08 06:20:26;;;;;;;22.58;4.38;;;;;;;15.55;79.32;100590.00;5115141;28;20059;-36
2021/08/08 06:22:51;;;;;;;;;;;;;;;15.68;78.94;100602.34;5114781;28;20081;-36
2021/08/08 06:25:18;;;;;;;15.15;4.03;;;;;;;15.61;78.46;100610.72;5114925;28;19911;-36
2021/08/08 06:27:43;;;;;;;16.52;3.25;;;;;;;15.59;79.73;100621.09;5114663;28;20405;-36
2021/08/08 06:30:09;;;;;;;13.27;3.45;;;;;;;15.65;79.60;100622.78;5114406;28;20047;-35
2021/08/08 06:32:35;;;;;;;20.20;4.00;;;;;;;15.66;78.90;100623.59;5114357;28;20023;-36
2021/08/08 06:35:01;;;;;;;12.57;3.72;;;;;;;15.60;78.08;100617.28;5115048;28;20033;-36
2021/08/08 06:37:27;;;;;;;14.90;4.07;;;;;;;15.72;78.48;100629.88;5114916;28;20110;-36
2021/08/08 06:39:52;;;;;;;13.27;3.43;;;;;;;15.80;78.46;100646.50;5114328;28;20127;-36
2021/08/08 06:42:17;;;;;;;19.90;3.50;;;;;;;15.86;77.66;100644.59;5114921;28;20276;-36
2021/08/08 06:44:42;;;;;;;11.33;3.03;;;;;;;15.88;77.39;100647.91;5114231;28;20269;-36
2021/08/08 06:47:08;;;;;;;17.47;4.00;;;;;;;15.91;77.26;100642.72;5114859;28;20242;-36
2021/08/08 06:49:33;;;;;;;;;;;;;;;16.05;77.65;100644.91;5114689;28;20107;-35
2021/08/08 06:51:59;;;;;;;15.17;3.50;;;;;;;15.98;76.68;100634.25;5113928;28;19998;-35
2021/08/08 06:54:25;;;;;;;21.05;5.22;;;;;;;16.09;76.59;100651.44;5114201;28;20293;-35
2021/08/08 06:56:50;;;;;;;;;;;;;;;16.23;76.32;100661.53;5114857;28;20401;-36
2021/08/08 06:59:15;;;;;;;11.37;3.10;;;;;;;16.22;75.75;100651.72;5114632;28;19998;-36
2021/08/08 07:01:40;;;;;;;;;;;;;;;16.42;75.08;100661.00;5114757;28;20027;-36
2021/08/08 07:04:06;;;;;;;12.97;3.57;;;;;;;16.42;74.45;100666.44;5113809;28;19903;-36
2021/08/08 07:06:31;;;;;;;;;;;;;;;16.53;74.84;100668.06;5114541;28;20050;-35
2021/08/08 07:08:56;;;;;;;17.23;3.65;;;;;;;16.42;73.98;100664.53;5113592;28;20431;-36
2021/08/08 07:11:22;;;;;;;15.90;3.55;;;;;;;16.39;73.71;100672.44;5113736;28;20023;-36
2021/08/08 07:13:48;;;;;;;14.65;3.33;;;;;;;16.36;75.04;100667.56;5114020;28;20020;-36
2021/08/08 07:16:13;;;;;;;8.68;2.83;;;;;;;16.50;73.85;100676.84;5113498;28;20361;-36
2021/08/08 07:18:38;;;;;;;10.33;3.13;;;;;;;16.62;74.85;100684.72;5113630;28;20019;-36
2021/08/08 07:21:04;;;;;;;;;;;;;;;16.69;72.97;100682.53;5114719;28;20018;-35
2021/08/08 07:23:29;;;;;;;13.35;2.90;;;;;;;16.72;72.91;100692.94;5113426;28;19994;-35
2021/08/08 07:25:54;;;;;;;;;;;;;;;16.82;72.82;100692.91;5114023;28;20122;-36
2021/08/08 07:28:20;;;;;;;20.13;3.83;;;;;;;16.78;71.76;100685.53;5113005;28;19914;-36
2021/08/08 07:30:46;;;;;;;14.55;3.33;;;;;;;16.76;71.90;100687.75;5113000;28;20016;-36
2021/08/08 07:33:11;;;;;;;16.65;3.25;;;;;;;16.78;71.38;100669.97;5113324;28;20019;-36
2021/08/08 07:35:39;;;;;;;12.82;2.95;;;;;;;16.86;72.38;100676.78;5113633;28;20051;-36
2021/08/08 07:38:05;;;;;;;18.77;3.92;;;;;;;16.89;69.92;100681.72;5113682;28;20433;-36
2021/08/08 07:40:31;;;;;;;12.38;2.83;;;;;;;16.90;70.01;100699.72;5113712;28;20102;-36
2021/08/08 07:42:56;;;;;;;;;;;;;;;17.03;70.53;100698.31;5113799;28;20023;-35
2021/08/08 07:45:22;;;;;;;14.88;3.35;;;;;;;17.07;69.88;100694.75;5113186;28;19949;-35
2021/08/08 07:47:47;;;;;;;18.33;3.15;;;;;;;17.06;69.98;100704.03;5113388;28;20027;-36
2021/08/08 07:50:13;;;;;;;13.02;3.17;;;;;;;17.05;70.24;100705.16;5113442;28;20023;-36
2021/08/08 07:52:38;;;;;;;;;;;;;;;17.17;70.42;100702.91;5113471;28;20034;-36
2021/08/08 07:55:05;;;;;;;8.27;2.83;;;;;;;16.99;70.45;100698.06;5113582;28;19903;-36
2021/08/08 07:57:30;;;;;;;12.13;3.28;;;;;;;16.93;70.60;100694.53;5113672;28;20016;-36
2021/08/08 07:59:56;;;;;;;14.60;3.10;;;;;;;17.02;70.77;100702.97;5113272;28;20024;-36
2021/08/08 08:02:21;;;;;;;19.67;3.90;;;;;;;16.99;69.90;100711.72;5113818;28;20314;-36
2021/08/08 08:04:46;;;;;;;;;;;;;;;17.19;71.03;100725.34;5112964;28;20032;-36
2021/08/08 08:07:12;;;;;;;13.30;3.40;;;;;;;17.10;69.23;100710.59;5113734;28;19904;-36
2021/08/08 08:09:37;;;;;;;12.07;2.97;;;;;;;17.11;68.52;100723.16;5113190;28;20802;-35
2021/08/08 08:12:03;;;;;;;;;;;;;;;17.28;69.24;100724.78;5114051;28;20034;-36
2021/08/08 08:14:28;;;;;;;16.40;3.65;;;;;;;17.25;69.21;100712.47;5113273;28;19903;-36
2021/08/08 08:16:54;;;;;;;11.85;2.95;;;;;;;17.22;68.82;100713.81;5115960;28;20055;-36
2021/08/08 08:19:19;;;;;;;13.32;3.53;;;;;;;17.31;68.60;100722.28;5117050;28;20440;-36
2021/08/08 08:21:44;;;;;;;;;;;;;;;17.44;69.43;100727.16;5117300;28;20027;-37
2021/08/08 08:24:11;;;;;;;18.02;4.00;;;;;;;17.24;67.41;100717.13;5117086;28;19910;-37
2021/08/08 08:26:36;;;;;;;;;;;;;;;17.39;68.22;100727.19;5117978;28;20047;-35
2021/08/08 08:29:01;;;;;;;11.90;2.85;;;;;;;17.32;67.81;100712.97;5116947;27;19908;-36
2021/08/08 08:31:27;;;;;;;;;;;;;;;17.59;68.26;100729.00;5117424;28;20034;-36
2021/08/08 08:33:52;;;;;;;12.85;3.58;;;;;;;17.64;68.45;100725.44;5117022;28;20292;-36
2021/08/08 08:36:18;;;;;;;;;;;;;;;17.91;67.88;100730.50;5118075;28;20023;-36
2021/08/08 08:38:43;;;;;;;12.97;3.07;;;;;;;17.86;67.19;100727.78;5115513;28;20313;-36
2021/08/08 08:41:13;;;;;;;10.27;2.60;;;;;;;17.98;67.62;100748.25;5117258;28;20584;-36
2021/08/08 08:43:39;;;;;;;13.68;3.10;;;;;;;17.85;66.43;100743.38;5117006;28;20016;-36
2021/08/08 08:46:05;;;;;;;14.23;3.33;;;;;;;17.80;66.88;100754.34;5117401;28;20359;-36
2021/08/08 08:48:33;;;;;;;15.65;2.97;;;;;;;17.78;66.48;100747.53;5116509;28;20106;-36
2021/08/08 08:51:00;;;;;;;9.27;2.60;;;;;;;17.73;65.81;100749.19;5116639;28;20312;-36
2021/08/08 08:53:25;;;;;;;12.25;2.92;;;;;;;17.61;65.69;100743.19;5116489;27;20117;-35
2021/08/08 08:55:51;;;;;;;10.57;2.65;;;;;;;17.57;65.36;100758.56;5116267;28;20057;-35
2021/08/08 08:58:16;;;;;;;;;;;;;;;17.73;66.30;100762.88;5115720;28;20387;-35
2021/08/08 09:00:42;;;;;;;9.52;2.55;;;;;;;17.61;66.33;100759.59;5116693;28;19908;-35
2021/08/08 09:03:07;;;;;;;;;;;;;;;17.78;67.28;100762.03;5116255;28;20079;-35
2021/08/08 09:05:33;;;;;;;10.02;2.63;;;;;;;17.70;66.14;100763.41;5116496;28;19915;-35
2021/08/08 09:07:58;;;;;;;;;;;;;;;17.79;66.58;100771.88;5115926;28;20059;-35
2021/08/08 09:10:24;;;;;;;13.45;2.97;;;;;;;17.71;66.86;100772.41;5116480;28;20014;-35
2021/08/08 09:12:59;;;;;;;;;;;;;;;17.87;65.67;100773.22;5116070;28;20023;-35
2021/08/08 09:15:50;;;;;;;11.10;2.50;;;;;;;17.91;63.60;100783.31;5115813;28;19915;-35
2021/08/08 09:18:21;;;;;;;12.02;2.20;;;;;;;17.81;63.59;100788.00;5111273;28;20027;-36
2021/08/08 09:20:47;;;;;;;13.52;2.45;;;;;;;17.82;63.68;100790.47;5115327;28;20020;-35
2021/08/08 09:23:14;;;;;;;12.07;2.95;;;;;;;17.80;64.44;100800.84;5116005;28;20095;-35
2021/08/08 09:25:56;;;;;;;11.30;3.20;;;;;;;17.98;63.82;100797.50;5115622;28;20039;-35
2021/08/08 09:28:30;;;;;;;8.82;2.47;;;;;;;18.06;64.03;100804.31;5114337;28;20463;-35
2021/08/08 09:30:57;;;;;;;8.48;2.67;;;;;;;18.08;63.25;100804.00;5115611;28;20031;-35
2021/08/08 09:33:22;;;;;;;10.48;2.47;;;;;;;17.96;62.97;100818.03;5114040;28;20023;-35
2021/08/08 09:35:53;;;;;;;8.70;2.80;;;;;;;17.81;64.49;100801.66;5115731;28;20050;-35
2021/08/08 09:38:18;;;;;;;6.90;2.50;;;;;;;17.81;63.06;100832.56;5115408;28;20448;-35
2021/08/08 09:40:59;;;;;;;10.10;3.05;;;;;;;17.81;63.80;100823.56;5113346;28;20042;-35
2021/08/08 09:43:28;;;;;;;11.75;3.10;;;;;;;17.87;65.23;100828.75;5115522;28;20027;-35
2021/08/08 09:45:53;;;;;;;11.63;2.72;;;;;;;17.97;65.60;100833.34;5115462;28;20077;-35
2021/08/08 09:48:19;;;;;;;13.32;3.22;;;;;;;18.00;66.04;100833.59;5114905;28;20019;-36
2021/08/08 09:50:45;;;;;;;;;;;;;;;18.13;65.08;100847.78;5115992;28;20024;-36
2021/08/08 09:53:17;;;;;;;9.30;2.53;;;;;;;18.06;65.37;100853.56;5114780;27;19957;-36
2021/08/08 09:55:42;;;;;;;14.45;2.95;;;;;;;18.06;64.61;100844.53;5115281;28;20092;-36
2021/08/08 09:58:10;;;;;;;9.07;3.08;;;;;;;17.95;63.96;100847.28;5115013;28;20042;-36
2021/08/08 10:00:38;;;;;;;9.57;2.67;;;;;;;17.99;64.24;100856.56;5115365;28;20028;-36
2021/08/08 10:03:04;;;;;;;13.27;3.70;;;;;;;17.95;64.08;100860.97;5115066;28;20028;-36
2021/08/08 10:05:34;;;;;;;12.02;2.80;;;;;;;17.93;64.69;100865.09;5114932;28;20019;-36
2021/08/08 10:08:05;;;;;;;8.20;2.15;;;;;;;17.80;64.79;100854.75;5115315;28;20341;-36
2021/08/08 10:10:33;;;;;;;11.95;2.80;;;;;;;17.94;64.28;100867.53;5115148;28;20050;-36
2021/08/08 10:13:25;;;;;;;9.35;2.70;;;;;;;18.17;65.57;100860.63;5114744;28;20024;-36
2021/08/08 10:15:52;;;;;;;9.95;2.80;;;;;;;18.28;63.86;100867.66;5031821;28;20046;-36
2021/08/08 10:18:21;;;;;;;9.70;2.47;;;;;;;18.41;63.41;100860.75;5032336;28;20397;-36
2021/08/08 10:20:47;;;;;;;13.63;2.63;;;;;;;18.45;62.64;100870.06;5032394;28;20459;-36
2021/08/08 10:23:14;;;;;;;11.90;2.65;;;;;;;18.41;63.13;100868.16;5031766;28;20033;-36
2021/08/08 10:25:43;;;;;;;9.75;2.75;;;;;;;18.50;61.46;100867.28;5031337;28;20041;-36
2021/08/08 10:28:08;;;;;;;10.95;2.90;;;;;;;18.51;61.16;100870.84;5032401;28;20045;-36
2021/08/08 10:30:34;;;;;;;;;;;;;;;18.80;62.97;100881.09;5032162;28;20029;-36
2021/08/08 10:33:07;;;;;;;8.10;2.47;;;;;;;18.72;62.33;100882.50;5031492;28;20280;-36
2021/08/08 10:35:41;;;;;;;11.13;2.67;;;;;;;18.63;62.29;100884.97;5031883;28;20079;-36
2021/08/08 10:38:07;;;;;;;8.77;2.65;;;;;;;18.50;61.17;100874.69;5030824;28;20044;-36
2021/08/08 10:40:36;;;;;;;11.00;2.72;;;;;;;18.39;61.71;100887.59;5050297;28;20068;-36
2021/08/08 10:43:02;;;;;;;10.32;2.47;;;;;;;18.39;63.76;100881.28;5049417;28;20453;-36
2021/08/08 10:45:28;;;;;;;;;;;;;;;18.53;63.14;100879.56;5051589;28;20040;-36
2021/08/08 10:47:58;;;;;;;9.20;2.58;;;;;;;18.46;63.72;100879.06;5040461;28;19912;-37
2021/08/08 10:50:38;;;;;;;10.75;2.03;;;;;;;18.49;62.75;100883.97;5032188;28;20037;-36
2021/08/08 10:53:04;;;;;;;8.82;2.58;;;;;;;18.43;63.25;100869.50;5086332;27;20035;-36
2021/08/08 10:55:31;;;;;;;9.05;2.47;;;;;;;18.55;62.19;100885.59;5134213;27;20110;-36
2021/08/08 10:58:00;;;;;;;9.68;2.10;;;;;;;18.63;61.40;100871.28;5125296;27;20019;-34
2021/08/08 11:00:33;;;;;;;7.63;2.05;;;;;;;18.76;62.01;100876.16;5114741;27;20020;-35
2021/08/08 11:03:19;;;;;;;13.48;3.00;;;;;;;18.86;61.77;100885.41;5114951;27;20030;-36
2021/08/08 11:05:44;;;;;;;10.32;2.80;;;;;;;18.97;62.71;100876.00;5113242;28;20036;-36
2021/08/08 11:08:11;;;;;;;;;;;;;;;19.15;61.80;100879.97;5114056;28;20354;-36
2021/08/08 11:10:39;;;;;;;7.05;1.90;;;;;;;19.08;60.42;100880.31;5113933;28;19904;-36
2021/08/08 11:13:20;;;;;;;13.50;3.28;;;;;;;19.16;61.40;100879.69;5113275;28;20080;-36
2021/08/08 11:15:46;;;;;;;9.98;2.45;;;;;;;19.16;61.13;100874.19;5113958;28;20027;-36
2021/08/08 11:18:13;;;;;;;8.65;2.05;;;;;;;19.41;59.49;100869.59;5113385;28;20023;-36
2021/08/08 11:20:39;;;;;;;6.78;2.42;;;;;;;19.60;59.16;100865.03;5113837;28;20405;-36
2021/08/08 11:23:04;;;;;;;6.75;2.17;;;;;;;19.81;58.37;100868.34;5113554;28;20019;-36